In Rescue
 
Open Full Screen Window  High Contrast Mode
Wind Gusting 00 knots
12
March 29, 2020 7:10 PM CDT
Weather Information
Wind Direction
  320 °
Wind Speed
  12 kt (14 mph)
Wind Gust
  00 kt (0 mph)
Altimeter
29.98 in
Visibility
10 SM
Temperature
11° C
52° F
Dewpoint
-08° C
18° F
Humidity
26%
1hr Rain Fall
00.00 in.
24hr Rain Fall
00.21 in.
Sky Condition
Missing
VFR

METAR KD39 300010Z AUTO 32012KT 10SM 11/M08 A2998 RMK AO2 T01111081

FAA Disclaimer: The data displayed is for advisory purposes only and is not to be used for flight planning or operations.
Missing Cloud Data